Terminal Aerodrome Forecast
Issued by NWS

Home | Current Version | Previous Version | Text Only | Print | Product List | Glossary On
Versions: 1 2 3 4 5 6 7 8 9 10 11 12 13 14 15 16 17
000
FTUS41 KPHI 212100 AAB
TAFPNE
TAF AMD
KPNE 212102Z 2121/2218 21006KT P6SM BKN040
      TEMPO 2200/2204 4SM -SHRA BR OVC025
     FM220400 VRB03KT P6SM BKN060
     FM221000 08003KT 5SM BR BKN015
     FM221400 07005KT P6SM BKN025=

USA.gov is the U.S. government's official web portal to all federal, state and local government web resources and services.